Casselman, Canada
Current Conditions -  °F | °C
As of 7:19 AM on Sunday 23 Nov 2014 (Local Time) from KMSS Reporting Station
Haze Haze  
Wind Chill: 38°   Ceiling: 400
Heat Index: 41°   Visibility: 1mi
Dew Point: 41°   Wind: 5mph
Humidity: 100%   Direction: 210°SSW
Pressure: 30.02"   Gusts: NA
Location:  45.3°N, 75.08°W
Report Text: KMSS 231219Z AUTO 21004KT 1SM BR OVC004 05/05 A3002 RMK AO2 RAB1158E11 P0000 T00500050
Loading
Personal Weather Stations






























Interactive Weather Map New forecast layout! Learn more

10-Day Weather Forecast

Advertisements
Track Severe Weather on mobile